createdAt,value
2023-04-22T00:00:58.121Z,3.42
2023-04-22T00:02:01.095Z,3.24
2023-04-22T00:03:04.078Z,3.36
2023-04-22T00:04:07.252Z,3.48
2023-04-22T00:05:10.297Z,3.15
2023-04-22T00:06:13.349Z,3.20
2023-04-22T00:07:16.324Z,3.40
2023-04-22T00:08:19.336Z,3.43
2023-04-22T00:09:22.037Z,3.03
2023-04-22T00:10:24.700Z,3.19
2023-04-22T00:11:27.261Z,3.23
2023-04-22T00:12:30.042Z,3.42
2023-04-22T00:13:32.822Z,2.80
2023-04-22T00:14:35.486Z,3.40
2023-04-22T00:15:38.145Z,3.67
2023-04-22T00:16:40.952Z,3.27
2023-04-22T00:17:43.649Z,2.92
2023-04-22T00:18:46.573Z,4.11
2023-04-22T00:19:49.347Z,4.05
2023-04-22T00:20:52.352Z,3.54
2023-04-22T00:21:55.200Z,3.92
2023-04-22T00:22:58.057Z,3.62
2023-04-22T00:24:00.932Z,4.41
2023-04-22T00:25:03.813Z,3.50
2023-04-22T00:26:06.599Z,2.89
2023-04-22T00:27:09.353Z,3.43
2023-04-22T00:28:12.235Z,3.57
2023-04-22T00:29:14.904Z,3.08
2023-04-22T00:30:17.696Z,3.33
2023-04-22T00:31:20.523Z,3.18
2023-04-22T00:32:23.226Z,3.35
2023-04-22T00:33:25.895Z,3.30
2023-04-22T00:34:28.470Z,3.11
2023-04-22T00:35:31.011Z,2.87
2023-04-22T00:36:33.792Z,2.83
2023-04-22T00:37:36.565Z,3.13
2023-04-22T00:38:39.232Z,2.84
2023-04-22T00:39:42.296Z,2.98
2023-04-22T00:40:45.295Z,2.95
2023-04-22T00:41:48.080Z,3.43
2023-04-22T00:42:50.759Z,3.59
2023-04-22T00:43:53.532Z,3.59
2023-04-22T00:44:56.172Z,3.35
2023-04-22T00:45:58.953Z,3.35
2023-04-22T00:47:01.721Z,3.30
2023-04-22T00:48:04.525Z,3.51
2023-04-22T00:49:07.368Z,3.66
2023-04-22T00:50:10.241Z,3.41
2023-04-22T00:51:12.809Z,3.38
2023-04-22T00:52:15.439Z,3.12
2023-04-22T00:53:18.254Z,3.27
2023-04-22T00:54:21.232Z,3.34
2023-04-22T00:55:24.009Z,3.42
2023-04-22T00:56:26.666Z,3.47
2023-04-22T00:57:29.229Z,3.05
2023-04-22T00:58:32.012Z,3.18
2023-04-22T00:59:34.591Z,3.34
2023-04-22T01:00:37.368Z,3.70
2023-04-22T01:01:40.049Z,3.65
2023-04-22T01:02:42.912Z,3.19
2023-04-22T01:03:45.888Z,3.30
2023-04-22T01:04:48.640Z,3.37
2023-04-22T01:05:51.529Z,3.35
2023-04-22T01:06:54.191Z,3.25
2023-04-22T01:07:57.082Z,3.44
2023-04-22T01:08:59.637Z,3.22
2023-04-22T01:10:02.497Z,3.50
2023-04-22T01:11:05.089Z,3.59
2023-04-22T01:12:07.738Z,3.89
2023-04-22T01:13:10.413Z,3.31
2023-04-22T01:14:12.975Z,3.44
2023-04-22T01:15:15.657Z,3.10
2023-04-22T01:23:36.925Z,2.73
2023-04-22T01:24:39.682Z,2.74
2023-04-22T01:25:42.257Z,3.30
2023-04-22T01:26:44.911Z,3.28
2023-04-22T01:27:47.751Z,3.07
2023-04-22T01:28:50.452Z,3.32
2023-04-22T01:29:53.237Z,3.09
2023-04-22T01:30:55.814Z,2.99
2023-04-22T01:31:58.522Z,2.99
2023-04-22T01:33:01.291Z,3.14
2023-04-22T01:34:03.919Z,3.11
2023-04-22T01:35:06.792Z,3.17
2023-04-22T01:36:11.678Z,3.05
2023-04-22T01:37:13.562Z,3.09
2023-04-22T01:38:16.248Z,3.37
2023-04-22T01:39:19.200Z,3.37
2023-04-22T01:40:22.180Z,3.38
2023-04-22T01:41:25.077Z,3.28
2023-04-22T01:42:28.045Z,3.21
2023-04-22T01:43:30.718Z,3.20
2023-04-22T01:44:33.380Z,3.15
2023-04-22T01:45:36.089Z,3.15
2023-04-22T01:46:38.940Z,3.56
2023-04-22T01:47:41.728Z,3.16
2023-04-22T01:48:44.599Z,3.19
2023-04-22T01:49:47.235Z,3.30
2023-04-22T01:50:50.011Z,3.33
2023-04-22T01:51:52.795Z,3.26
2023-04-22T01:52:55.566Z,3.69
2023-04-22T01:53:58.247Z,3.37
2023-04-22T01:55:00.911Z,2.87
2023-04-22T01:56:03.595Z,3.61
2023-04-22T01:57:06.347Z,3.45
2023-04-22T01:58:09.109Z,4.04
2023-04-22T01:59:11.885Z,4.42
2023-04-22T02:00:15.120Z,3.92
2023-04-22T02:01:17.814Z,3.75
2023-04-22T02:02:20.909Z,4.33
2023-04-22T02:03:23.959Z,3.97
2023-04-22T02:04:26.986Z,3.65
2023-04-22T02:05:29.866Z,4.18
2023-04-22T02:06:32.519Z,3.95
2023-04-22T02:07:35.292Z,4.32
2023-04-22T02:08:37.882Z,3.63
2023-04-22T02:09:40.935Z,3.68
2023-04-22T02:10:44.146Z,3.68
2023-04-22T02:11:46.786Z,3.81
2023-04-22T02:12:49.575Z,3.55
2023-04-22T02:13:52.221Z,3.18
2023-04-22T02:14:54.890Z,3.61
2023-04-22T02:15:57.494Z,3.40
2023-04-22T02:17:00.135Z,3.16
2023-04-22T02:18:02.897Z,3.56
2023-04-22T02:19:05.584Z,3.71
2023-04-22T02:20:08.268Z,3.63
2023-04-22T02:21:10.910Z,3.82
2023-04-22T02:22:13.687Z,3.59
2023-04-22T02:23:16.361Z,3.83
2023-04-22T02:24:18.919Z,3.59
2023-04-22T02:25:21.592Z,3.64
2023-04-22T02:26:24.275Z,3.81
2023-04-22T02:27:27.248Z,3.52
2023-04-22T02:28:30.112Z,3.78
2023-04-22T02:29:32.901Z,4.11
2023-04-22T02:30:35.556Z,3.87
2023-04-22T02:31:38.615Z,4.06
2023-04-22T02:32:41.456Z,3.53
2023-04-22T02:33:44.090Z,4.05
2023-04-22T02:34:46.868Z,3.86
2023-04-22T02:35:49.613Z,3.85
2023-04-22T02:36:52.408Z,3.85
2023-04-22T02:37:54.962Z,4.07
2023-04-22T02:38:57.727Z,3.82
2023-04-22T02:40:00.504Z,4.18
2023-04-22T02:41:03.290Z,4.10
2023-04-22T02:42:06.049Z,4.40
2023-04-22T02:43:08.815Z,4.22
2023-04-22T02:44:11.590Z,4.23
2023-04-22T02:45:14.574Z,4.22
2023-04-22T02:46:17.408Z,4.36
2023-04-22T02:47:20.018Z,4.35
2023-04-22T02:48:22.685Z,4.11
2023-04-22T02:49:25.356Z,3.89
2023-04-22T02:50:28.334Z,4.47
2023-04-22T02:51:31.120Z,4.30
2023-04-22T02:52:33.775Z,4.08
2023-04-22T02:53:36.554Z,4.34
2023-04-22T02:54:39.118Z,3.80
2023-04-22T02:55:42.187Z,4.07
2023-04-22T02:56:45.273Z,4.61
2023-04-22T02:57:48.043Z,3.62
2023-04-22T02:58:50.917Z,3.80
2023-04-22T02:59:53.631Z,3.98
2023-04-22T03:00:56.582Z,4.24
2023-04-22T03:01:59.249Z,4.74
2023-04-22T03:03:01.991Z,4.47
2023-04-22T03:04:04.694Z,4.99
2023-04-22T03:05:07.322Z,4.62
2023-04-22T03:06:10.217Z,5.16
2023-04-22T03:07:13.308Z,5.46
2023-04-22T03:08:16.282Z,4.60
2023-04-22T03:09:19.012Z,4.52
2023-04-22T03:10:21.937Z,4.65
2023-04-22T03:11:24.794Z,4.62
2023-04-22T03:12:27.887Z,4.87
2023-04-22T03:13:30.552Z,4.04
2023-04-22T03:14:33.418Z,3.79
2023-04-22T03:15:36.195Z,4.65
2023-04-22T03:16:38.905Z,4.88
2023-04-22T03:17:41.735Z,5.55
2023-04-22T03:18:44.404Z,5.42
2023-04-22T03:19:47.197Z,5.78
2023-04-22T03:20:49.955Z,5.65
2023-04-22T03:21:52.744Z,5.45
2023-04-22T03:22:55.804Z,5.33
2023-04-22T03:23:58.925Z,5.23
2023-04-22T03:25:01.693Z,5.00
2023-04-22T03:26:04.342Z,5.49
2023-04-22T03:27:06.905Z,5.11
2023-04-22T03:28:09.597Z,4.26
2023-04-22T03:29:12.434Z,5.31
2023-04-22T03:30:15.151Z,4.25
2023-04-22T03:31:18.029Z,4.15
2023-04-22T03:32:21.140Z,4.55
2023-04-22T03:33:24.048Z,4.78
2023-04-22T03:34:26.930Z,4.42
2023-04-22T03:35:29.484Z,4.38
2023-04-22T03:36:32.261Z,4.77
2023-04-22T03:37:35.235Z,5.86
2023-04-22T03:38:38.115Z,4.88
2023-04-22T03:39:41.253Z,4.88
2023-04-22T03:40:44.175Z,5.64
2023-04-22T03:41:46.857Z,5.32
2023-04-22T03:42:49.642Z,5.60
2023-04-22T03:43:52.598Z,6.03
2023-04-22T03:44:55.329Z,5.82
2023-04-22T03:45:58.520Z,5.28
2023-04-22T03:47:01.516Z,5.49
2023-04-22T03:48:04.786Z,5.48
2023-04-22T03:49:07.802Z,5.28
2023-04-22T03:50:11.207Z,5.38
2023-04-22T03:51:13.993Z,5.00
2023-04-22T03:52:16.721Z,4.12
2023-04-22T03:53:19.399Z,4.26
2023-04-22T03:54:22.058Z,4.57
2023-04-22T03:55:25.090Z,3.67
2023-04-22T03:56:27.875Z,3.92
2023-04-22T03:57:32.230Z,4.05
2023-04-22T03:58:34.877Z,4.00
2023-04-22T03:59:37.998Z,4.55
2023-04-22T04:00:40.827Z,4.47
2023-04-22T04:01:43.393Z,4.72
2023-04-22T04:02:46.247Z,5.01
2023-04-22T04:03:49.344Z,5.30
2023-04-22T04:04:52.297Z,4.92
2023-04-22T04:05:55.463Z,5.42
2023-04-22T04:06:58.246Z,5.67
2023-04-22T04:08:00.877Z,5.34
2023-04-22T04:09:03.521Z,5.10
2023-04-22T04:10:06.200Z,4.78
2023-04-22T04:12:19.111Z,5.17
2023-04-22T04:13:21.690Z,4.66
2023-04-22T04:14:24.459Z,4.55
2023-04-22T04:15:27.019Z,5.59
2023-04-22T04:16:30.168Z,4.88
2023-04-22T04:17:32.983Z,5.21
2023-04-22T04:18:35.640Z,5.03
2023-04-22T04:19:38.666Z,3.90
2023-04-22T04:20:41.498Z,4.18
2023-04-22T04:21:44.293Z,5.43
2023-04-22T04:22:46.847Z,5.50
2023-04-22T04:23:49.700Z,4.88
2023-04-22T04:24:52.516Z,3.79
2023-04-22T04:25:55.139Z,4.23
2023-04-22T04:26:58.047Z,4.10
2023-04-22T04:28:00.590Z,3.33
2023-04-22T04:29:03.391Z,3.62
2023-04-22T04:30:06.186Z,3.38
2023-04-22T04:31:08.938Z,3.38
2023-04-22T04:32:11.807Z,3.54
2023-04-22T04:33:14.510Z,3.72
2023-04-22T04:34:17.216Z,3.72
2023-04-22T04:35:20.102Z,3.62
2023-04-22T04:36:22.762Z,4.02
2023-04-22T04:37:25.748Z,3.83
2023-04-22T04:38:28.309Z,3.70
2023-04-22T04:39:31.081Z,3.59
2023-04-22T04:40:33.761Z,3.66
2023-04-22T04:41:36.328Z,3.56
2023-04-22T04:42:39.100Z,3.38
2023-04-22T04:43:41.767Z,3.62
2023-04-22T04:44:44.320Z,3.77
2023-04-22T04:45:48.691Z,3.77
2023-04-22T04:46:51.347Z,3.78
2023-04-22T04:47:54.117Z,3.74
2023-04-22T04:48:56.960Z,3.62
2023-04-22T04:51:10.073Z,3.67
2023-04-22T04:53:29.273Z,3.65
2023-04-22T04:54:32.032Z,3.48
2023-04-22T04:55:34.707Z,3.76
2023-04-22T04:56:37.872Z,3.60
2023-04-22T04:57:40.640Z,3.35
2023-04-22T04:58:43.323Z,3.33
2023-04-22T04:59:46.179Z,3.38
2023-04-22T05:00:49.095Z,3.24
2023-04-22T05:01:52.295Z,3.33
2023-04-22T05:02:55.218Z,3.37
2023-04-22T05:03:58.282Z,3.21
2023-04-22T05:05:01.373Z,2.85
2023-04-22T05:06:04.252Z,2.82
2023-04-22T05:07:06.926Z,2.65
2023-04-22T05:08:09.693Z,2.22
2023-04-22T05:09:12.673Z,2.25
2023-04-22T05:10:15.918Z,1.98
2023-04-22T05:11:18.830Z,2.13
2023-04-22T05:12:21.821Z,1.75
2023-04-22T05:13:24.679Z,2.08
2023-04-22T05:14:27.658Z,2.28
2023-04-22T05:15:30.537Z,2.09
2023-04-22T05:16:33.319Z,1.73
2023-04-22T05:17:37.466Z,1.83
2023-04-22T05:18:40.356Z,1.99
2023-04-22T05:19:43.276Z,1.86
2023-04-22T05:20:46.153Z,1.68
2023-04-22T05:21:48.990Z,1.61
2023-04-22T05:22:52.422Z,1.66
2023-04-22T05:23:55.473Z,1.54
2023-04-22T05:24:58.349Z,1.89
2023-04-22T05:26:01.335Z,1.85
2023-04-22T05:27:04.130Z,1.66
2023-04-22T05:28:06.989Z,1.58
2023-04-22T05:29:09.761Z,1.60
2023-04-22T05:30:12.526Z,1.82
2023-04-22T05:31:15.198Z,1.40
2023-04-22T05:32:17.953Z,1.70
2023-04-22T05:33:21.260Z,1.70
2023-04-22T05:34:24.122Z,1.81
2023-04-22T05:35:28.542Z,1.77
2023-04-22T05:36:31.928Z,1.65
2023-04-22T05:37:35.100Z,1.78
2023-04-22T05:38:37.767Z,1.72
2023-04-22T05:39:40.708Z,1.97
2023-04-22T05:40:43.520Z,1.70
2023-04-22T05:41:47.087Z,2.21
2023-04-22T05:42:50.192Z,1.93
2023-04-22T05:43:52.872Z,1.83
2023-04-22T05:44:55.728Z,1.89
2023-04-22T05:45:58.797Z,1.78
2023-04-22T05:47:01.681Z,1.84
2023-04-22T05:48:04.369Z,1.78
2023-04-22T05:49:07.037Z,1.83
2023-04-22T05:50:09.897Z,1.73
2023-04-22T05:51:12.877Z,1.97
2023-04-22T05:52:15.658Z,2.66
2023-04-22T05:53:18.323Z,2.08
2023-04-22T05:54:20.893Z,1.88
2023-04-22T05:55:23.656Z,2.05
2023-04-22T05:56:26.393Z,1.57
2023-04-22T05:57:29.003Z,2.02
2023-04-22T05:58:32.065Z,2.16
2023-04-22T05:59:35.076Z,1.96
2023-04-22T06:00:37.719Z,2.01
2023-04-22T06:01:40.607Z,1.80
2023-04-22T06:02:43.543Z,1.52
2023-04-22T06:03:46.607Z,1.75
2023-04-22T06:04:50.226Z,1.88
2023-04-22T06:05:53.615Z,1.92
2023-04-22T06:06:56.516Z,2.20
2023-04-22T06:07:59.083Z,1.82
2023-04-22T06:09:01.750Z,1.77
2023-04-22T06:10:05.630Z,1.93
2023-04-22T06:11:08.612Z,1.84
2023-04-22T06:12:11.375Z,2.02
2023-04-22T06:13:13.981Z,3.02
2023-04-22T06:14:16.568Z,3.65
2023-04-22T06:15:19.300Z,3.60
2023-04-22T06:16:22.077Z,3.75
2023-04-22T06:17:24.985Z,4.05
2023-04-22T06:18:28.458Z,4.39
2023-04-22T06:19:32.137Z,3.93
2023-04-22T06:20:34.710Z,4.31
2023-04-22T06:21:37.576Z,4.26
2023-04-22T06:22:40.266Z,4.37
2023-04-22T06:23:42.840Z,4.00
2023-04-22T06:24:46.403Z,4.42
2023-04-22T06:25:49.720Z,4.54
2023-04-22T06:26:52.453Z,5.20
2023-04-22T06:27:55.535Z,4.46
2023-04-22T06:28:58.419Z,4.43
2023-04-22T06:30:01.398Z,4.62
2023-04-22T06:31:05.929Z,4.57
2023-04-22T06:32:08.873Z,4.65
2023-04-22T06:33:11.871Z,4.45
2023-04-22T06:34:14.646Z,4.58
2023-04-22T06:35:17.194Z,4.71
2023-04-22T06:36:20.195Z,5.82
2023-04-22T06:37:23.052Z,4.58
2023-04-22T06:38:25.819Z,4.67
2023-04-22T06:39:28.609Z,4.76
2023-04-22T06:40:31.482Z,3.69
2023-04-22T06:41:34.336Z,4.00
2023-04-22T06:42:36.940Z,3.28
2023-04-22T06:43:39.633Z,3.97
2023-04-22T06:44:42.554Z,4.40
2023-04-22T06:45:45.533Z,3.82
2023-04-22T06:46:48.548Z,3.25
2023-04-22T06:47:51.424Z,2.95
2023-04-22T06:48:54.063Z,3.68
2023-04-22T06:49:56.622Z,4.04
2023-04-22T06:50:59.324Z,4.52
2023-04-22T06:52:01.981Z,5.14
2023-04-22T06:53:04.572Z,5.07
2023-04-22T06:55:23.892Z,5.06
2023-04-22T06:56:26.781Z,4.82
2023-04-22T06:57:29.666Z,4.72
2023-04-22T06:58:32.423Z,4.78
2023-04-22T06:59:35.312Z,4.72
2023-04-22T07:01:45.893Z,5.23
2023-04-22T07:02:48.983Z,5.42
2023-04-22T07:03:51.837Z,5.52
2023-04-22T07:04:54.837Z,5.55
2023-04-22T07:05:57.577Z,5.68
2023-04-22T07:07:00.238Z,6.05
2023-04-22T07:08:03.119Z,6.09
2023-04-22T07:09:05.768Z,5.18
2023-04-22T07:10:08.365Z,5.03
2023-04-22T07:11:14.579Z,5.38
2023-04-22T07:12:20.640Z,5.42
2023-04-22T07:13:23.422Z,5.85
2023-04-22T07:14:26.291Z,6.33
2023-04-22T07:15:29.084Z,6.39
2023-04-22T07:16:31.800Z,6.49
2023-04-22T07:17:34.544Z,6.55
2023-04-22T07:18:37.425Z,6.42
2023-04-22T07:19:40.579Z,6.29
2023-04-22T07:20:43.957Z,6.75
2023-04-22T07:21:46.712Z,6.42
2023-04-22T07:22:49.701Z,6.12
2023-04-22T07:23:52.404Z,6.43
2023-04-22T07:24:55.304Z,5.83
2023-04-22T07:25:58.024Z,6.50
2023-04-22T07:27:00.827Z,7.14
2023-04-22T07:28:03.355Z,6.59
2023-04-22T07:29:05.914Z,6.18
2023-04-22T07:30:08.620Z,6.27
2023-04-22T07:31:12.864Z,6.88
2023-04-22T07:32:15.498Z,6.51
2023-04-22T07:33:18.072Z,6.11
2023-04-22T07:34:20.592Z,6.14
2023-04-22T07:35:23.158Z,6.50
2023-04-22T07:36:25.838Z,6.15
2023-04-22T07:37:28.624Z,6.37
2023-04-22T07:38:31.206Z,6.87
2023-04-22T07:39:33.948Z,6.62
2023-04-22T07:40:36.619Z,6.28
2023-04-22T07:41:39.214Z,6.50
2023-04-22T07:42:42.162Z,5.72
2023-04-22T07:43:44.968Z,4.99
2023-04-22T07:44:47.702Z,5.22
2023-04-22T07:45:50.947Z,3.96
2023-04-22T07:46:53.864Z,3.90
2023-04-22T07:47:56.452Z,4.25
2023-04-22T07:48:59.116Z,5.29
2023-04-22T07:50:01.830Z,5.12
2023-04-22T07:51:04.431Z,4.10
2023-04-22T07:52:07.130Z,4.92
2023-04-22T07:53:09.777Z,3.98
2023-04-22T07:54:12.455Z,4.14
2023-04-22T07:55:15.333Z,4.16
2023-04-22T07:56:18.013Z,3.95
2023-04-22T07:57:20.564Z,3.86
2023-04-22T07:58:23.344Z,3.25
2023-04-22T07:59:26.118Z,4.06
2023-04-22T08:00:28.828Z,3.87
2023-04-22T08:01:31.446Z,3.42
2023-04-22T08:02:34.372Z,3.54
2023-04-22T08:03:37.264Z,3.48
2023-04-22T08:04:40.348Z,4.05
2023-04-22T08:05:42.946Z,2.78
2023-04-22T08:06:45.521Z,2.62
2023-04-22T08:07:48.489Z,3.25
2023-04-22T08:08:51.368Z,3.03
2023-04-22T08:09:54.237Z,2.52
2023-04-22T08:10:56.912Z,2.46
2023-04-22T08:11:59.690Z,2.15
2023-04-22T08:13:02.565Z,2.18
2023-04-22T08:14:05.428Z,2.50
2023-04-22T08:15:08.207Z,2.71
2023-04-22T08:16:10.823Z,2.58
2023-04-22T08:17:13.450Z,2.50
2023-04-22T08:18:16.322Z,2.67
2023-04-22T08:19:19.098Z,2.72
2023-04-22T08:20:21.873Z,2.24
2023-04-22T08:21:24.752Z,2.52
2023-04-22T08:22:27.415Z,2.50
2023-04-22T08:23:30.279Z,2.83
2023-04-22T08:24:33.158Z,2.56
2023-04-22T08:25:35.837Z,3.18
2023-04-22T08:26:38.400Z,2.47
2023-04-22T08:27:41.169Z,2.61
2023-04-22T08:28:44.153Z,2.39
2023-04-22T08:29:46.818Z,2.50
2023-04-22T08:30:49.491Z,2.70
2023-04-22T08:31:52.150Z,2.44
2023-04-22T08:32:55.043Z,2.65
2023-04-22T08:33:57.802Z,2.62
2023-04-22T08:35:04.804Z,2.69
2023-04-22T08:36:04.771Z,2.85
2023-04-22T08:37:07.776Z,2.90
2023-04-22T08:38:10.433Z,2.52
2023-04-22T08:39:13.296Z,2.45
2023-04-22T08:40:15.972Z,2.66
2023-04-22T08:41:18.641Z,2.55
2023-04-22T08:42:21.626Z,2.70
2023-04-22T08:43:24.301Z,2.33
2023-04-22T08:44:27.054Z,2.52
2023-04-22T08:45:29.825Z,2.91
2023-04-22T08:46:32.553Z,2.99
2023-04-22T08:47:35.394Z,3.25
2023-04-22T08:48:37.999Z,2.94
2023-04-22T08:49:40.749Z,3.03
2023-04-22T08:50:43.695Z,3.32
2023-04-22T08:51:46.557Z,3.28
2023-04-22T08:52:49.672Z,3.05
2023-04-22T08:53:52.221Z,3.08
2023-04-22T08:54:54.898Z,3.84
2023-04-22T08:55:57.475Z,4.44
2023-04-22T08:57:00.047Z,4.75
2023-04-22T08:58:02.923Z,4.95
2023-04-22T08:59:05.694Z,4.98
2023-04-22T09:00:08.453Z,4.67
2023-04-22T09:01:11.141Z,4.18
2023-04-22T09:02:14.109Z,4.69
2023-04-22T09:03:17.223Z,4.32
2023-04-22T09:04:20.042Z,4.00
2023-04-22T09:05:27.730Z,3.88
2023-04-22T09:06:29.787Z,4.20
2023-04-22T09:07:32.360Z,4.72
2023-04-22T09:08:34.918Z,4.88
2023-04-22T09:09:37.714Z,4.85
2023-04-22T09:10:40.570Z,5.17
2023-04-22T09:11:43.128Z,5.38
2023-04-22T09:12:45.801Z,5.69
2023-04-22T09:13:48.487Z,5.36
2023-04-22T09:14:51.140Z,5.25
2023-04-22T09:15:53.938Z,5.37
2023-04-22T09:16:56.804Z,5.14
2023-04-22T09:17:59.424Z,5.08
2023-04-22T09:19:02.130Z,5.39
2023-04-22T09:20:04.795Z,5.44
2023-04-22T09:21:07.468Z,5.49
2023-04-22T09:22:10.044Z,5.98
2023-04-22T09:23:12.717Z,5.28
2023-04-22T09:24:15.371Z,5.88
2023-04-22T09:25:18.048Z,6.03
2023-04-22T09:26:20.731Z,5.95
2023-04-22T09:27:23.486Z,5.32
2023-04-22T09:28:26.500Z,5.31
2023-04-22T09:29:29.127Z,5.55
2023-04-22T09:30:32.122Z,5.86
2023-04-22T09:31:34.936Z,5.94
2023-04-22T09:32:37.582Z,5.79
2023-04-22T09:33:40.432Z,5.92
2023-04-22T09:34:43.510Z,6.45
2023-04-22T09:35:46.611Z,5.66
2023-04-22T09:36:49.451Z,4.75
2023-04-22T09:37:52.316Z,4.89
2023-04-22T09:38:55.007Z,5.19
2023-04-22T09:39:57.775Z,5.77
2023-04-22T09:41:03.143Z,5.04
2023-04-22T09:42:05.879Z,5.08
2023-04-22T09:43:08.645Z,5.07
2023-04-22T09:44:11.322Z,5.19
2023-04-22T09:45:13.997Z,5.11
2023-04-22T09:46:16.597Z,5.05
2023-04-22T09:47:19.325Z,5.23
2023-04-22T09:48:22.200Z,4.87
2023-04-22T09:49:24.878Z,4.89
2023-04-22T09:50:27.650Z,4.92
2023-04-22T09:51:30.336Z,5.43
2023-04-22T09:52:33.005Z,5.43
2023-04-22T09:53:35.550Z,5.95
2023-04-22T09:54:38.426Z,5.85
2023-04-22T09:55:41.095Z,5.73
2023-04-22T09:56:43.696Z,6.46
2023-04-22T09:57:46.450Z,6.15
2023-04-22T09:58:49.207Z,6.05
2023-04-22T09:59:52.084Z,6.03
2023-04-22T10:00:54.687Z,7.06
2023-04-22T10:01:57.728Z,7.29
2023-04-22T10:03:00.732Z,8.21
2023-04-22T10:04:03.881Z,7.25
2023-04-22T10:05:07.479Z,7.09
2023-04-22T10:06:10.157Z,6.71
2023-04-22T10:07:13.750Z,6.93
2023-04-22T10:08:16.598Z,6.78
2023-04-22T10:09:19.495Z,7.22
2023-04-22T10:10:22.078Z,7.18
2023-04-22T10:11:24.831Z,8.13
2023-04-22T10:12:35.195Z,7.48
2023-04-22T10:13:32.414Z,6.81
2023-04-22T10:14:35.089Z,7.38
2023-04-22T10:15:38.172Z,6.84
2023-04-22T10:16:40.868Z,7.13
2023-04-22T10:17:43.669Z,6.88
2023-04-22T10:18:46.593Z,6.70
2023-04-22T10:19:49.270Z,7.08
2023-04-22T10:20:52.051Z,6.55
2023-04-22T10:21:54.723Z,6.39
2023-04-22T10:22:57.469Z,6.22
2023-04-22T10:24:00.090Z,5.56
2023-04-22T10:25:02.816Z,5.59
2023-04-22T10:26:05.591Z,5.94
2023-04-22T10:27:08.672Z,5.89
2023-04-22T10:28:11.456Z,5.82
2023-04-22T10:29:14.034Z,5.86
2023-04-22T10:30:16.687Z,6.26
2023-04-22T10:31:19.584Z,5.84
2023-04-22T10:32:22.232Z,4.88
2023-04-22T10:33:25.095Z,4.46
2023-04-22T10:34:27.770Z,5.11
2023-04-22T10:35:30.433Z,5.62
2023-04-22T10:36:33.306Z,5.07
2023-04-22T10:37:36.192Z,4.87
2023-04-22T10:38:39.053Z,4.77
2023-04-22T10:39:42.115Z,4.38
2023-04-22T10:40:45.637Z,4.63
2023-04-22T10:41:48.309Z,4.65
2023-04-22T10:42:50.860Z,4.63
2023-04-22T10:43:53.542Z,4.92
2023-04-22T10:44:56.076Z,4.83
2023-04-22T10:45:59.119Z,4.65
2023-04-22T10:47:02.042Z,4.85
2023-04-22T10:48:04.770Z,4.87
2023-04-22T10:49:07.404Z,4.65
2023-04-22T10:50:09.893Z,5.24
2023-04-22T10:51:12.655Z,4.46
2023-04-22T10:52:15.325Z,4.54
2023-04-22T10:53:17.979Z,3.89
2023-04-22T10:54:21.140Z,3.98
2023-04-22T10:55:24.159Z,4.43
2023-04-22T10:56:26.706Z,4.22
2023-04-22T10:57:29.270Z,4.24
2023-04-22T10:58:31.955Z,4.75
2023-04-22T10:59:34.617Z,5.46
2023-04-22T11:00:51.705Z,4.72
2023-04-22T11:01:44.079Z,4.96
2023-04-22T11:02:46.798Z,4.87
2023-04-22T11:03:49.639Z,4.82
2023-04-22T11:04:52.173Z,4.73
2023-04-22T11:05:54.832Z,4.69
2023-04-22T11:06:57.600Z,5.05
2023-04-22T11:08:00.172Z,5.09
2023-04-22T11:09:02.835Z,5.38
2023-04-22T11:10:05.817Z,5.28
2023-04-22T11:11:08.698Z,5.35
2023-04-22T11:13:27.440Z,5.45
2023-04-22T11:14:30.112Z,5.05
2023-04-22T11:15:32.753Z,4.99
2023-04-22T11:16:35.392Z,5.24
2023-04-22T11:17:38.085Z,5.52
2023-04-22T11:18:40.702Z,5.76
2023-04-22T11:19:43.487Z,5.50
2023-04-22T11:20:46.033Z,5.59
2023-04-22T11:21:50.759Z,4.98
2023-04-22T11:22:52.896Z,5.01
2023-04-22T11:23:55.570Z,4.83
2023-04-22T11:24:58.147Z,4.73
2023-04-22T11:26:00.805Z,4.66
2023-04-22T11:27:03.484Z,5.05
2023-04-22T11:28:06.153Z,4.72
2023-04-22T11:29:08.956Z,4.96
2023-04-22T11:30:11.605Z,4.76
2023-04-22T11:31:14.286Z,4.75
2023-04-22T11:32:17.120Z,4.86
2023-04-22T11:33:19.813Z,4.92
2023-04-22T11:34:22.472Z,4.85
2023-04-22T11:35:25.355Z,4.86
2023-04-22T11:36:28.223Z,4.81
2023-04-22T11:37:31.303Z,5.04
2023-04-22T11:38:33.974Z,4.68
2023-04-22T11:39:44.293Z,5.05
2023-04-22T11:40:46.189Z,5.01
2023-04-22T11:41:47.214Z,5.43
2023-04-22T11:42:50.021Z,5.27
2023-04-22T11:43:52.657Z,5.27
2023-04-22T11:44:55.530Z,5.16
2023-04-22T11:45:58.491Z,5.37
2023-04-22T11:47:01.184Z,5.31
2023-04-22T11:48:04.107Z,5.24
2023-04-22T11:49:06.624Z,5.35
2023-04-22T11:50:09.316Z,5.45
2023-04-22T11:51:12.070Z,5.33
2023-04-22T11:52:14.724Z,6.04
2023-04-22T11:53:17.398Z,5.62
2023-04-22T11:54:20.061Z,5.68
2023-04-22T11:55:22.949Z,6.20
2023-04-22T11:56:25.627Z,5.75
2023-04-22T11:57:28.337Z,5.69
2023-04-22T11:58:31.384Z,5.85
2023-04-22T11:59:34.229Z,5.46
2023-04-22T12:00:37.416Z,5.81
2023-04-22T12:01:39.975Z,5.79
2023-04-22T12:02:42.736Z,6.33
2023-04-22T12:03:46.095Z,6.72
2023-04-22T12:04:48.823Z,6.50
2023-04-22T12:05:51.487Z,6.58
2023-04-22T12:06:54.264Z,6.53
2023-04-22T12:07:57.119Z,7.18
2023-04-22T12:09:00.119Z,6.75
2023-04-22T12:10:02.869Z,6.79
2023-04-22T12:11:05.563Z,6.92
2023-04-22T12:12:11.946Z,7.28
2023-04-22T12:13:14.674Z,7.40
2023-04-22T12:14:17.545Z,7.78
2023-04-22T12:15:20.313Z,7.39
2023-04-22T12:16:23.042Z,7.57
2023-04-22T12:17:25.738Z,7.16
2023-04-22T12:18:28.323Z,7.06
2023-04-22T12:19:31.198Z,6.97
2023-04-22T12:20:33.790Z,6.78
2023-04-22T12:21:36.435Z,6.52
2023-04-22T12:22:39.103Z,7.15
2023-04-22T12:23:41.988Z,7.38
2023-04-22T12:24:44.855Z,7.12
2023-04-22T12:25:47.425Z,7.69
2023-04-22T12:26:50.191Z,7.20
2023-04-22T12:27:52.866Z,6.69
2023-04-22T12:28:55.539Z,7.58
2023-04-22T12:29:58.208Z,7.62
2023-04-22T12:31:01.014Z,8.28
2023-04-22T12:32:03.775Z,7.65
2023-04-22T12:33:06.441Z,7.95
2023-04-22T12:34:09.059Z,7.35
2023-04-22T12:35:12.279Z,7.17
2023-04-22T12:36:14.948Z,7.96
2023-04-22T12:37:17.732Z,8.21
2023-04-22T12:38:20.505Z,7.69
2023-04-22T12:39:23.166Z,7.52
2023-04-22T12:40:25.750Z,7.51
2023-04-22T12:41:28.410Z,7.17
2023-04-22T12:42:30.965Z,7.42
2023-04-22T12:43:33.655Z,6.81
2023-04-22T12:44:36.246Z,7.08
2023-04-22T12:45:39.291Z,7.12
2023-04-22T12:46:42.006Z,6.39
2023-04-22T12:47:44.750Z,7.09
2023-04-22T12:48:47.399Z,7.30
2023-04-22T12:49:50.186Z,7.50
2023-04-22T12:50:52.843Z,7.33
2023-04-22T12:51:55.509Z,6.84
2023-04-22T12:52:58.291Z,6.52
2023-04-22T12:54:00.755Z,6.71
2023-04-22T12:55:03.327Z,6.16
2023-04-22T12:56:05.978Z,6.75
2023-04-22T12:57:08.657Z,6.35
2023-04-22T12:58:11.314Z,6.59
2023-04-22T12:59:13.893Z,6.54
2023-04-22T13:00:16.491Z,6.33
2023-04-22T13:01:19.083Z,5.63
2023-04-22T13:02:21.823Z,5.90
2023-04-22T13:03:24.655Z,5.48
2023-04-22T13:04:27.710Z,5.78
2023-04-22T13:05:30.830Z,5.51
2023-04-22T13:06:33.505Z,5.44
2023-04-22T13:07:36.271Z,5.68
2023-04-22T13:08:38.834Z,5.82
2023-04-22T13:09:41.846Z,5.58
2023-04-22T13:10:45.765Z,5.72
2023-04-22T13:11:48.583Z,5.61
2023-04-22T13:12:51.270Z,5.95
2023-04-22T13:13:53.938Z,6.03
2023-04-22T13:14:56.489Z,6.32
2023-04-22T13:15:59.220Z,6.00
2023-04-22T13:17:01.942Z,5.95
2023-04-22T13:18:04.740Z,6.02
2023-04-22T13:19:08.617Z,5.99
2023-04-22T13:20:11.687Z,5.63
2023-04-22T13:21:14.358Z,6.11
2023-04-22T13:22:17.033Z,6.25
2023-04-22T13:23:19.909Z,6.07
2023-04-22T13:24:22.678Z,6.32
2023-04-22T13:25:25.349Z,6.37
2023-04-22T13:26:28.024Z,6.42
2023-04-22T13:27:30.790Z,6.96
2023-04-22T13:28:33.658Z,6.45
2023-04-22T13:29:36.747Z,6.81
2023-04-22T13:30:39.429Z,7.04
2023-04-22T13:31:41.936Z,7.08
2023-04-22T13:32:45.110Z,7.10
2023-04-22T13:33:47.721Z,7.32
2023-04-22T13:34:50.395Z,7.38
2023-04-22T13:35:53.157Z,8.21
2023-04-22T13:36:55.850Z,8.01
2023-04-22T13:37:58.470Z,7.98
2023-04-22T13:39:00.973Z,8.40
2023-04-22T13:40:03.646Z,8.42
2023-04-22T13:41:06.321Z,8.29
2023-04-22T13:42:08.892Z,8.38
2023-04-22T13:43:11.849Z,9.09
2023-04-22T13:44:14.528Z,8.85
2023-04-22T13:45:17.111Z,9.20
2023-04-22T13:46:19.836Z,9.25
2023-04-22T13:47:22.474Z,8.85
2023-04-22T13:48:25.269Z,8.52
2023-04-22T13:49:27.984Z,9.04
2023-04-22T13:50:30.916Z,8.78
2023-04-22T13:51:33.629Z,9.37
2023-04-22T13:52:36.389Z,9.22
2023-04-22T13:53:39.185Z,9.10
2023-04-22T13:54:41.732Z,9.18
2023-04-22T13:55:44.516Z,9.01
2023-04-22T13:56:47.180Z,9.12
2023-04-22T13:57:49.749Z,9.04
2023-04-22T13:58:52.970Z,8.94
2023-04-22T13:59:56.216Z,8.81
2023-04-22T14:00:59.145Z,9.05
2023-04-22T14:02:01.968Z,9.69
2023-04-22T14:03:04.756Z,9.76
2023-04-22T14:04:07.847Z,9.28
2023-04-22T14:05:10.387Z,9.47
2023-04-22T14:06:12.950Z,9.42
2023-04-22T14:07:15.824Z,9.75
2023-04-22T14:08:18.525Z,9.67
2023-04-22T14:09:21.363Z,9.85
2023-04-22T14:10:25.134Z,9.70
2023-04-22T14:11:28.346Z,9.80